Time;durP1;ratioP1;P1;durP2;ratioP2;P2;SDS_P1;SDS_P2;PMS_P1;PMS_P2;Temp;Humidity;BMP_temperature;BMP_pressure;BME280_temperature;BME280_humidity;BME280_pressure;Samples;Min_cycle;Max_cycle;Signal;HPM_P1;HPM_P2
2022/05/25 00:01:15;;;;;;;6.13;4.35;;;;;;;10.43;81.81;101176.84;6247699;23;20022;-76
2022/05/25 00:03:40;;;;;;;7.18;4.20;;;;;;;10.41;81.60;101178.75;6273967;23;20008;-77
2022/05/25 00:06:08;;;;;;;7.03;4.55;;;;;;;10.39;82.02;101181.50;6272340;23;19999;-76
2022/05/25 00:08:33;;;;;;;9.02;4.65;;;;;;;10.39;82.28;101181.50;6272993;23;19988;-77
2022/05/25 00:10:58;;;;;;;7.35;4.50;;;;;;;10.37;82.46;101186.06;6272910;23;20007;-77
2022/05/25 00:13:24;;;;;;;7.20;5.00;;;;;;;10.38;82.42;101179.81;6273307;23;19996;-77
2022/05/25 00:15:50;;;;;;;5.50;4.85;;;;;;;10.35;81.95;101177.38;6273689;23;20012;-77
2022/05/25 00:18:16;;;;;;;5.63;4.78;;;;;;;10.34;81.65;101180.97;6274067;23;20026;-76
2022/05/25 00:20:41;;;;;;;6.18;5.07;;;;;;;10.31;82.34;101184.69;6273801;23;20012;-76
2022/05/25 00:23:06;;;;;;;8.27;5.35;;;;;;;10.30;82.31;101182.13;6273399;23;20083;-76
2022/05/25 00:25:35;;;;;;;8.57;5.40;;;;;;;10.28;82.14;101181.41;6273304;22;20034;-77
2022/05/25 00:28:03;;;;;;;7.90;5.80;;;;;;;10.27;82.17;101185.00;6273232;23;20227;-77
2022/05/25 00:30:29;;;;;;;7.35;5.78;;;;;;;10.26;82.43;101193.91;6247226;23;20000;-77
2022/05/25 00:32:56;;;;;;;8.70;6.22;;;;;;;10.23;82.53;101191.50;6274246;23;20034;-77
2022/05/25 00:35:23;;;;;;;7.20;5.75;;;;;;;10.19;82.78;101186.38;6274010;22;19992;-77
2022/05/25 00:37:49;;;;;;;7.97;6.95;;;;;;;10.19;83.09;101185.53;6273634;23;19988;-77
2022/05/25 00:40:27;;;;;;;7.25;6.22;;;;;;;10.18;82.90;101184.69;6274555;23;19992;-77
2022/05/25 00:42:52;;;;;;;7.15;6.03;;;;;;;10.14;83.02;101179.69;6274642;22;19996;-77
2022/05/25 00:45:18;;;;;;;7.57;6.47;;;;;;;10.14;83.43;101182.34;6274396;22;20019;-79
2022/05/25 00:47:47;;;;;;;8.23;6.63;;;;;;;10.15;82.93;101195.50;6273960;23;20267;-77
2022/05/25 00:50:15;;;;;;;7.95;6.38;;;;;;;10.13;83.56;101194.78;6274140;22;19989;-78
2022/05/25 00:52:45;;;;;;;6.97;6.30;;;;;;;10.09;83.40;101195.94;6273946;23;20020;-77
2022/05/25 00:55:15;;;;;;;9.30;6.85;;;;;;;10.04;83.73;101197.19;6274228;22;19992;-78
2022/05/25 00:57:43;;;;;;;8.45;6.65;;;;;;;10.03;84.09;101204.31;6274723;22;20041;-80
2022/05/25 01:00:16;;;;;;;8.43;6.80;;;;;;;10.06;83.89;101203.25;6274573;22;20015;-78
2022/05/25 01:02:45;;;;;;;8.38;6.43;;;;;;;10.00;83.99;101201.88;6274071;23;20011;-77
2022/05/25 01:05:13;;;;;;;6.80;6.15;;;;;;;10.02;83.65;101207.91;6272948;23;20016;-77
2022/05/25 01:08:00;;;;;;;10.45;6.72;;;;;;;9.98;84.07;101212.59;6272533;23;19988;-78
2022/05/25 01:10:38;;;;;;;8.90;6.63;;;;;;;9.99;83.64;101211.66;6272751;23;20027;-77
2022/05/25 01:13:31;;;;;;;7.70;7.00;;;;;;;10.00;83.91;101210.69;6272601;23;20057;-77
2022/05/25 01:16:29;;;;;;;8.25;6.82;;;;;;;9.98;83.69;101211.75;6272364;23;19981;-77
2022/05/25 01:18:57;;;;;;;8.73;7.00;;;;;;;9.93;83.38;101211.22;6273271;23;20023;-78
2022/05/25 01:21:48;;;;;;;7.65;6.85;;;;;;;9.94;83.63;101213.78;6273241;23;20008;-77
2022/05/25 01:24:28;;;;;;;8.25;7.25;;;;;;;9.91;84.39;101211.31;6247560;23;20069;-78
2022/05/25 01:27:05;;;;;;;9.57;7.60;;;;;;;9.87;83.92;101212.47;6273673;22;19999;-78
2022/05/25 01:29:46;;;;;;;7.97;6.78;;;;;;;9.88;84.05;101216.84;6274032;23;20485;-78
2022/05/25 01:32:21;;;;;;;12.15;7.57;;;;;;;9.82;84.48;101211.94;6247777;23;19988;-77
2022/05/25 01:34:53;;;;;;;9.93;6.93;;;;;;;9.82;84.14;101215.47;6275005;23;20031;-78
2022/05/25 01:37:34;;;;;;;7.65;6.90;;;;;;;9.83;83.63;101216.28;6276450;23;20006;-79
2022/05/25 01:40:09;;;;;;;8.95;7.10;;;;;;;9.79;83.73;101212.13;6276334;23;19992;-77
2022/05/25 01:42:44;;;;;;;8.15;7.35;;;;;;;9.78;84.25;101216.59;6275908;23;20015;-77
2022/05/25 01:45:10;;;;;;;8.55;6.90;;;;;;;9.77;84.33;101216.69;6275999;22;20015;-80
2022/05/25 01:47:42;;;;;;;7.85;7.05;;;;;;;9.77;84.40;101219.34;6275854;22;19993;-77
2022/05/25 01:50:14;;;;;;;8.40;7.55;;;;;;;9.70;84.17;101210.13;6275838;22;20035;-78
2022/05/25 01:52:51;;;;;;;10.18;7.40;;;;;;;9.71;83.96;101217.97;6275183;23;19990;-77
2022/05/25 01:55:28;;;;;;;7.78;6.97;;;;;;;9.71;83.82;101225.94;6273995;23;19988;-78
2022/05/25 01:57:57;;;;;;;9.05;7.30;;;;;;;9.69;84.68;101219.00;6275611;22;20015;-78
2022/05/25 02:00:39;;;;;;;9.10;7.53;;;;;;;9.68;84.40;101227.94;6274970;23;20063;-77
2022/05/25 02:06:17;;;;;;;9.20;7.88;;;;;;;9.64;83.86;101219.31;6275263;23;20043;-77
2022/05/25 02:09:02;;;;;;;11.25;7.63;;;;;;;9.59;84.71;101222.31;6275853;23;20004;-78
2022/05/25 02:11:34;;;;;;;9.52;7.60;;;;;;;9.56;84.77;101232.22;6249756;23;20004;-78
2022/05/25 02:14:37;;;;;;;11.23;8.00;;;;;;;9.56;85.13;101224.28;6276046;22;20008;-80
2022/05/25 02:17:30;;;;;;;8.13;7.38;;;;;;;9.51;85.61;101223.72;6276209;23;20015;-78
2022/05/25 02:20:01;;;;;;;8.00;7.30;;;;;;;9.43;85.39;101226.91;6276228;23;20004;-79
2022/05/25 02:22:39;;;;;;;8.63;7.70;;;;;;;9.40;85.83;101233.25;6276026;22;19992;-78
2022/05/25 02:25:08;;;;;;;9.30;7.55;;;;;;;9.39;85.86;101228.91;6276104;23;20015;-78
2022/05/25 02:27:39;;;;;;;10.02;7.95;;;;;;;9.34;85.49;101233.66;6276157;22;20044;-78
2022/05/25 02:30:13;;;;;;;8.80;7.88;;;;;;;9.35;85.70;101227.41;6275476;23;20026;-78
2022/05/25 02:33:02;;;;;;;8.40;7.53;;;;;;;9.34;85.42;101236.31;6249888;23;20015;-77
2022/05/25 02:35:29;;;;;;;11.15;7.82;;;;;;;9.30;85.45;101244.56;6275730;22;20015;-77
2022/05/25 02:38:02;;;;;;;9.80;7.45;;;;;;;9.32;85.69;101240.84;6275270;23;20064;-77
2022/05/25 02:40:34;;;;;;;8.18;7.28;;;;;;;9.28;85.49;101238.53;6275708;23;19992;-77
2022/05/25 02:42:59;;;;;;;9.68;7.72;;;;;;;9.28;85.54;101246.47;6275488;22;19988;-78
2022/05/25 02:45:25;;;;;;;9.73;7.35;;;;;;;9.26;85.52;101247.41;6274919;23;20007;-78
2022/05/25 02:47:50;;;;;;;9.82;7.28;;;;;;;9.23;85.40;101246.75;6275714;23;19996;-78
2022/05/25 02:50:16;;;;;;;9.18;7.60;;;;;;;9.23;85.54;101249.41;6275807;22;20008;-79
2022/05/25 02:52:42;;;;;;;9.02;7.07;;;;;;;9.20;85.56;101249.59;6248950;23;20012;-77
2022/05/25 02:55:07;;;;;;;11.15;7.18;;;;;;;9.19;85.37;101255.84;6274868;22;19999;-78
2022/05/25 02:57:33;;;;;;;10.43;7.03;;;;;;;9.17;85.74;101255.09;6275582;22;20003;-75
2022/05/25 02:59:59;;;;;;;9.23;7.38;;;;;;;9.14;85.79;101261.44;6275933;22;20041;-78
2022/05/25 03:02:24;;;;;;;11.00;7.18;;;;;;;9.11;86.28;101256.34;6274784;22;19996;-77
2022/05/25 03:04:49;;;;;;;8.18;6.78;;;;;;;9.12;85.96;101257.19;6274971;22;20013;-77
2022/05/25 03:07:15;;;;;;;8.00;6.45;;;;;;;9.13;85.54;101254.44;6275620;22;20031;-78
2022/05/25 03:09:40;;;;;;;8.27;6.53;;;;;;;9.12;85.48;101262.50;6275491;23;20015;-77
2022/05/25 03:12:07;;;;;;;9.18;6.60;;;;;;;9.12;86.01;101267.81;6275221;22;19992;-78
2022/05/25 03:14:32;;;;;;;7.03;6.25;;;;;;;9.08;85.75;101273.28;6275435;22;19992;-78
2022/05/25 03:17:02;;;;;;;8.88;6.40;;;;;;;9.09;85.39;101274.13;6275744;22;20060;-80
2022/05/25 03:19:30;;;;;;;10.25;6.28;;;;;;;9.07;85.31;101274.22;6275873;22;19997;-79
2022/05/25 03:21:55;;;;;;;9.82;6.25;;;;;;;9.07;85.55;101273.38;6275617;22;20042;-78
2022/05/25 03:24:20;;;;;;;7.83;6.17;;;;;;;9.06;85.38;101269.06;6275456;22;19992;-76
2022/05/25 03:26:46;;;;;;;7.55;5.93;;;;;;;9.07;85.19;101271.56;6248488;23;20255;-77
2022/05/25 03:29:13;;;;;;;8.25;6.20;;;;;;;9.05;84.66;101268.19;6274410;22;20060;-77
2022/05/25 03:31:38;;;;;;;11.10;5.93;;;;;;;9.01;85.65;101268.47;6248584;23;20027;-76
2022/05/25 03:34:03;;;;;;;10.55;6.45;;;;;;;8.99;85.60;101279.19;6273527;23;20015;-79
2022/05/25 03:36:28;;;;;;;7.75;6.18;;;;;;;8.99;85.09;101271.25;6272904;22;20008;-80
2022/05/25 03:38:54;;;;;;;8.90;5.72;;;;;;;8.94;85.26;101283.91;6273337;23;20011;-79
2022/05/25 03:41:20;;;;;;;8.60;6.25;;;;;;;8.96;85.46;101279.38;6273093;22;19988;-79
2022/05/25 03:43:46;;;;;;;12.82;6.78;;;;;;;8.96;85.64;101283.81;6272527;23;19988;-80
2022/05/25 03:46:11;;;;;;;7.57;6.35;;;;;;;8.96;85.68;101289.97;6273088;23;20015;-79
2022/05/25 03:48:36;;;;;;;10.70;5.80;;;;;;;8.96;85.81;101289.97;6272658;22;19996;-79
2022/05/25 03:51:02;;;;;;;6.65;5.63;;;;;;;8.97;85.82;101290.81;6274431;23;20033;-77
2022/05/25 03:53:28;;;;;;;9.57;6.38;;;;;;;8.93;86.25;101300.75;6274765;23;19988;-77
2022/05/25 03:55:53;;;;;;;9.77;6.18;;;;;;;8.91;86.10;101300.00;6274677;22;19992;-77
2022/05/25 03:58:18;;;;;;;10.35;5.95;;;;;;;8.93;86.15;101305.22;6274688;23;20044;-77
2022/05/25 04:00:44;;;;;;;7.50;5.63;;;;;;;8.94;85.97;101306.91;6275076;22;20015;-78
2022/05/25 04:03:13;;;;;;;10.20;6.53;;;;;;;8.92;86.33;101304.34;6274886;22;20003;-78
2022/05/25 04:05:38;;;;;;;11.52;6.40;;;;;;;8.92;86.57;101312.28;6274136;22;20027;-77
2022/05/25 04:08:04;;;;;;;10.60;5.88;;;;;;;8.94;85.85;101312.19;6273665;23;19992;-77
2022/05/25 04:10:29;;;;;;;9.10;6.43;;;;;;;8.92;85.98;101306.16;6274187;22;20004;-77
2022/05/25 04:12:54;;;;;;;10.60;6.00;;;;;;;8.91;87.02;101313.25;6273681;23;20008;-77
2022/05/25 04:15:25;;;;;;;7.13;6.43;;;;;;;8.91;87.05;101313.25;6274039;23;19999;-78
2022/05/25 04:17:50;;;;;;;10.35;6.97;;;;;;;8.89;87.12;101315.13;6273554;23;20019;-80
2022/05/25 04:20:18;;;;;;;9.13;6.38;;;;;;;8.91;87.03;101313.25;6273707;23;19989;-76
2022/05/25 04:22:43;;;;;;;8.25;6.43;;;;;;;8.91;87.28;101318.56;6273145;23;20010;-76
2022/05/25 04:25:11;;;;;;;9.77;6.10;;;;;;;8.93;87.05;101316.66;6272889;23;19992;-78
2022/05/25 04:27:39;;;;;;;8.45;6.40;;;;;;;8.96;87.54;101319.13;6273355;23;20000;-78
2022/05/25 04:30:07;;;;;;;9.35;6.18;;;;;;;8.96;87.03;101318.25;6273471;23;20094;-77
2022/05/25 04:32:32;;;;;;;8.10;6.10;;;;;;;9.01;86.88;101324.09;6274165;22;20030;-77
2022/05/25 04:34:58;;;;;;;10.80;7.00;;;;;;;9.02;88.02;101320.53;6274548;23;19984;-77
2022/05/25 04:40:10;;;;;;;13.43;6.07;;;;;;;9.08;87.68;101320.97;6274293;23;20035;-79
2022/05/25 04:42:35;;;;;;;8.77;6.07;;;;;;;9.10;87.80;101326.19;6247721;23;20018;-76
2022/05/25 04:45:00;;;;;;;7.30;6.10;;;;;;;9.17;88.06;101318.72;6274291;23;19993;-77
2022/05/25 04:47:30;;;;;;;10.77;6.07;;;;;;;9.20;88.08;101323.81;6273545;23;20578;-77
2022/05/25 04:49:56;;;;;;;8.65;5.70;;;;;;;9.26;88.36;101328.75;6247237;23;19984;-78
2022/05/25 04:52:22;;;;;;;9.27;6.10;;;;;;;9.31;88.47;101326.66;6247318;23;20054;-77
2022/05/25 04:54:47;;;;;;;11.32;6.28;;;;;;;9.39;88.42;101327.00;6272781;23;19996;-77
2022/05/25 04:57:23;;;;;;;10.10;5.65;;;;;;;9.46;88.14;101332.78;6273034;23;19992;-77
2022/05/25 04:59:58;;;;;;;9.15;5.95;;;;;;;9.55;87.88;101334.81;6249858;23;20007;-77
2022/05/25 05:02:24;;;;;;;12.13;5.88;;;;;;;9.62;87.91;101335.25;6272952;23;20015;-78
2022/05/25 05:04:49;;;;;;;6.97;5.50;;;;;;;9.71;87.71;101336.47;6273170;23;20059;-76
2022/05/25 05:07:15;;;;;;;8.07;5.75;;;;;;;9.78;87.67;101337.78;6273326;23;20012;-77
2022/05/25 05:09:42;;;;;;;10.88;5.68;;;;;;;9.84;87.64;101334.72;6273792;22;20023;-77
2022/05/25 05:12:09;;;;;;;11.25;6.13;;;;;;;9.85;87.80;101335.59;6273936;22;20000;-78
2022/05/25 05:14:34;;;;;;;9.85;5.47;;;;;;;9.92;87.45;101342.19;6274307;22;20008;-79
2022/05/25 05:17:02;;;;;;;10.60;5.40;;;;;;;9.97;87.81;101340.06;6247818;23;20060;-79
2022/05/25 05:19:28;;;;;;;12.00;5.88;;;;;;;10.02;87.59;101335.31;6273114;22;20007;-77
2022/05/25 05:21:55;;;;;;;8.38;5.80;;;;;;;10.09;87.71;101330.44;6274013;23;19995;-78
2022/05/25 05:24:21;;;;;;;9.35;5.40;;;;;;;10.18;87.62;101327.19;6273372;23;19984;-76
2022/05/25 05:26:47;;;;;;;11.18;5.43;;;;;;;10.32;87.40;101321.81;6273047;23;20023;-77
2022/05/25 05:29:12;;;;;;;12.50;5.85;;;;;;;10.48;87.14;101320.78;6271824;23;19988;-77
2022/05/25 05:31:38;;;;;;;10.55;5.20;;;;;;;10.65;86.22;101322.25;6273283;23;20057;-76
2022/05/25 05:34:04;;;;;;;11.27;5.60;;;;;;;10.84;85.79;101322.69;6272101;23;20000;-76
2022/05/25 05:36:34;;;;;;;10.88;5.80;;;;;;;11.09;85.63;101318.28;6273079;22;19996;-77
2022/05/25 05:39:08;;;;;;;10.70;5.53;;;;;;;11.27;84.33;101319.66;6274368;22;20083;-77
2022/05/25 05:41:44;;;;;;;7.20;5.30;;;;;;;11.45;83.67;101320.09;6274021;22;19999;-81
2022/05/25 05:44:14;;;;;;;8.30;5.20;;;;;;;11.64;82.77;101314.31;6272766;22;20008;-77
2022/05/25 05:46:42;;;;;;;9.35;5.00;;;;;;;11.80;82.08;101313.16;6271037;23;20416;-77
2022/05/25 05:49:12;;;;;;;7.90;4.75;;;;;;;11.97;81.15;101320.78;6273889;22;19998;-78
2022/05/25 05:51:38;;;;;;;9.93;5.32;;;;;;;12.15;80.37;101312.34;6274434;22;19999;-78
2022/05/25 05:54:04;;;;;;;11.93;5.20;;;;;;;12.33;80.28;101318.09;6274538;22;19992;-80
2022/05/25 05:56:32;;;;;;;7.22;5.30;;;;;;;12.50;79.41;101311.47;6274631;22;19995;-78
2022/05/25 05:58:59;;;;;;;8.35;5.07;;;;;;;12.72;79.00;101319.50;6274603;22;19988;-80
2022/05/25 06:01:24;;;;;;;9.55;5.07;;;;;;;12.91;78.47;101326.91;6274370;22;20064;-79
2022/05/25 06:03:50;;;;;;;10.18;5.60;;;;;;;13.06;77.42;101326.66;6248532;22;19992;-80
2022/05/25 06:06:15;;;;;;;11.13;5.30;;;;;;;13.12;76.29;101331.47;6273595;22;20105;-80
2022/05/25 06:08:46;;;;;;;10.20;5.25;;;;;;;13.25;75.69;101336.69;6248156;23;20035;-78
2022/05/25 06:11:11;;;;;;;8.73;5.20;;;;;;;13.32;75.26;101335.25;6274319;22;20008;-78
2022/05/25 06:13:36;;;;;;;9.82;4.93;;;;;;;13.50;75.38;101323.09;6274492;22;20019;-76
2022/05/25 06:21:30;;;;;;;10.05;4.68;;;;;;;13.83;74.67;101349.84;6274612;22;20050;-78
2022/05/25 06:23:57;;;;;;;11.15;4.80;;;;;;;13.84;74.08;101346.19;6274740;22;19992;-76
2022/05/25 06:26:25;;;;;;;9.15;4.93;;;;;;;13.80;73.38;101350.91;6275033;22;19992;-77
2022/05/25 06:28:50;;;;;;;12.13;5.43;;;;;;;13.74;73.33;101359.44;6274258;22;20016;-77
2022/05/25 06:31:16;;;;;;;11.27;6.13;;;;;;;13.77;73.86;101356.53;6274141;22;20011;-77
2022/05/25 06:33:43;;;;;;;10.90;5.70;;;;;;;13.77;74.33;101363.69;6274261;22;20027;-76
2022/05/25 06:36:16;;;;;;;8.27;5.55;;;;;;;13.77;74.46;101359.22;6275275;22;20000;-78
2022/05/25 06:38:42;;;;;;;10.45;5.93;;;;;;;13.87;74.58;101364.63;6274861;22;20016;-76
2022/05/25 06:41:09;;;;;;;11.90;7.05;;;;;;;13.85;74.43;101367.41;6273860;22;20008;-79
2022/05/25 06:43:34;;;;;;;10.93;6.75;;;;;;;13.80;74.01;101366.94;6273887;22;20023;-78
2022/05/25 06:45:59;;;;;;;16.70;8.82;;;;;;;13.80;74.59;101366.94;6273263;23;19988;-77
2022/05/25 06:48:25;;;;;;;13.32;9.80;;;;;;;13.76;74.36;101378.84;6274230;22;19988;-77
2022/05/25 06:50:50;;;;;;;10.00;7.72;;;;;;;13.79;74.37;101377.75;6274812;22;20041;-77
2022/05/25 06:53:15;;;;;;;14.30;8.40;;;;;;;13.80;75.38;101369.59;6274914;22;19988;-77
2022/05/25 06:55:40;;;;;;;14.60;8.20;;;;;;;13.80;74.18;101377.63;6274297;22;20274;-77
2022/05/25 06:58:06;;;;;;;15.20;8.15;;;;;;;13.83;74.02;101377.38;6275400;22;19988;-76
2022/05/25 07:00:34;;;;;;;10.93;8.03;;;;;;;13.94;74.38;101372.97;6274305;22;20019;-78
2022/05/25 07:03:04;;;;;;;13.00;8.00;;;;;;;14.12;74.03;101376.81;6274584;22;20311;-76
2022/05/25 07:05:29;;;;;;;13.07;7.65;;;;;;;14.13;73.18;101381.16;6274365;22;20020;-79
2022/05/25 07:07:55;;;;;;;9.98;7.43;;;;;;;14.24;73.63;101386.47;6275233;22;20023;-78
2022/05/25 07:10:20;;;;;;;11.40;7.78;;;;;;;14.35;73.42;101388.22;6274560;22;20000;-78
2022/05/25 07:12:46;;;;;;;15.52;8.43;;;;;;;14.41;72.16;101384.19;6274609;22;20052;-78
2022/05/25 07:15:11;;;;;;;13.02;7.85;;;;;;;14.51;72.21;101387.78;6248421;22;20018;-79
2022/05/25 07:17:39;;;;;;;10.63;7.35;;;;;;;14.62;71.45;101397.59;6275471;22;20019;-79
2022/05/25 07:20:06;;;;;;;11.63;6.97;;;;;;;14.82;71.95;101403.91;6275514;22;19996;-78
2022/05/25 07:22:32;;;;;;;9.90;7.20;;;;;;;15.06;71.40;101400.13;6275006;22;20019;-79
2022/05/25 07:24:58;;;;;;;12.38;7.75;;;;;;;15.36;70.64;101400.09;6275688;22;19993;-79
2022/05/25 07:27:23;;;;;;;12.05;7.20;;;;;;;15.59;68.39;101399.03;6275628;22;20160;-80
2022/05/25 07:29:48;;;;;;;11.15;7.68;;;;;;;15.89;68.02;101400.84;6275654;22;19998;-80
2022/05/25 07:32:14;;;;;;;11.93;8.07;;;;;;;16.21;67.26;101407.78;6248838;23;20019;-75
2022/05/25 07:34:45;;;;;;;9.57;6.75;;;;;;;16.40;64.66;101405.09;6272524;22;20238;-76
2022/05/25 07:37:16;;;;;;;12.88;6.82;;;;;;;16.42;65.26;101399.56;6275149;22;20004;-78
2022/05/25 07:39:47;;;;;;;7.95;6.30;;;;;;;16.38;64.11;101403.53;6274250;22;20044;-78
2022/05/25 07:42:13;;;;;;;12.45;6.18;;;;;;;16.51;64.64;101406.78;6273117;22;20011;-78
2022/05/25 07:44:43;;;;;;;6.25;5.65;;;;;;;16.61;64.59;101410.28;6275042;22;20023;-78
2022/05/25 07:47:09;;;;;;;12.13;6.00;;;;;;;16.84;63.30;101407.28;6275274;22;20039;-76
2022/05/25 07:49:34;;;;;;;9.20;5.10;;;;;;;17.10;62.26;101410.22;6275244;22;20010;-78
2022/05/25 07:52:01;;;;;;;7.23;4.60;;;;;;;17.42;61.79;101414.34;6275290;22;20035;-78
2022/05/25 07:54:27;;;;;;;8.60;4.55;;;;;;;17.65;61.27;101411.22;6275278;22;20239;-78
2022/05/25 07:56:52;;;;;;;6.53;4.40;;;;;;;17.82;60.76;101413.13;6248854;22;20031;-78
2022/05/25 07:59:18;;;;;;;8.77;4.18;;;;;;;18.20;59.93;101411.19;6275043;22;19994;-79
2022/05/25 08:07:31;;;;;;;10.73;4.10;;;;;;;19.21;57.52;101405.34;6275070;22;20003;-81
2022/05/25 08:10:03;;;;;;;8.05;3.78;;;;;;;19.61;58.14;101408.41;6274927;22;19992;-78
2022/05/25 08:12:29;;;;;;;9.10;4.35;;;;;;;20.02;56.55;101413.06;6274852;22;19992;-81
2022/05/25 08:14:54;;;;;;;27.73;4.60;;;;;;;20.21;53.27;101411.94;6274666;22;20030;-79
2022/05/25 08:17:20;;;;;;;15.32;3.85;;;;;;;20.52;54.53;101412.13;6248753;23;19996;-80
2022/05/25 08:19:45;;;;;;;7.35;3.03;;;;;;;20.56;52.30;101413.44;6274800;22;20019;-80
2022/05/25 08:22:10;;;;;;;8.60;3.15;;;;;;;20.65;52.23;101412.47;6273624;22;19992;-79
2022/05/25 08:24:36;;;;;;;7.10;3.03;;;;;;;20.74;52.13;101420.56;6272928;22;20018;-79
2022/05/25 08:27:01;;;;;;;7.65;3.08;;;;;;;20.76;50.67;101413.13;6273351;22;20254;-78
2022/05/25 08:29:26;;;;;;;8.95;3.30;;;;;;;20.93;50.64;101409.38;6272601;22;20003;-79
2022/05/25 08:31:55;;;;;;;8.27;3.25;;;;;;;21.07;48.98;101405.97;6273871;22;19996;-80
2022/05/25 08:34:22;;;;;;;7.22;2.95;;;;;;;21.25;49.76;101405.75;6272916;22;20011;-78
2022/05/25 08:36:47;;;;;;;5.07;2.58;;;;;;;21.33;50.58;101401.34;6271462;22;19996;-79
2022/05/25 08:39:13;;;;;;;7.97;2.90;;;;;;;21.58;49.71;101397.56;6273075;22;19996;-80
2022/05/25 08:41:39;;;;;;;6.55;2.60;;;;;;;21.74;48.97;101399.31;6270016;22;19996;-78
2022/05/25 08:44:07;;;;;;;4.88;2.53;;;;;;;21.87;48.55;101404.16;6247888;22;20007;-78
2022/05/25 08:46:33;;;;;;;5.17;2.73;;;;;;;22.21;47.23;101391.22;6272461;22;20008;-77
2022/05/25 08:49:02;;;;;;;7.90;2.63;;;;;;;22.15;47.10;101403.63;6269034;22;20059;-77
2022/05/25 08:51:29;;;;;;;4.85;2.40;;;;;;;22.23;46.76;101398.13;6273474;23;20011;-77
2022/05/25 08:54:00;;;;;;;5.28;2.53;;;;;;;22.39;46.71;101407.19;6273358;22;20000;-78
2022/05/25 08:56:46;;;;;;;4.90;2.13;;;;;;;22.38;46.52;101400.91;6273828;22;19992;-80
2022/05/25 08:59:23;;;;;;;7.95;2.45;;;;;;;22.30;46.70;101392.88;6273590;22;19995;-79
2022/05/25 09:01:58;;;;;;;5.10;2.08;;;;;;;22.44;44.55;101392.09;6273601;22;20014;-79
2022/05/25 09:04:42;;;;;;;3.60;1.75;;;;;;;22.47;43.15;101402.53;6273494;22;20035;-79
2022/05/25 09:07:13;;;;;;;3.60;1.83;;;;;;;22.85;44.79;101401.69;6273317;22;20022;-79
2022/05/25 09:09:42;;;;;;;4.00;1.73;;;;;;;22.85;43.83;101390.88;6273700;22;20019;-78
2022/05/25 09:12:14;;;;;;;;;;;;;;;23.33;46.70;101385.94;6273633;22;20023;-78
2022/05/25 09:14:56;;;;;;;4.75;1.92;;;;;;;23.03;44.02;101394.06;6273652;22;19895;-79
2022/05/25 09:17:35;;;;;;;3.25;1.52;;;;;;;22.85;42.72;101402.53;6274227;22;19999;-78
2022/05/25 09:20:01;;;;;;;4.45;1.40;;;;;;;22.53;40.59;101412.66;6274421;22;19995;-78
2022/05/25 09:22:27;;;;;;;4.07;1.15;;;;;;;22.43;41.31;101413.91;6274246;22;19988;-78
2022/05/25 09:24:57;;;;;;;5.28;1.05;;;;;;;21.95;41.47;101412.22;6274410;22;20014;-77
2022/05/25 09:27:30;;;;;;;3.50;1.00;;;;;;;21.51;41.61;101417.34;6274194;22;20008;-78
2022/05/25 09:30:00;;;;;;;3.22;1.30;;;;;;;21.42;41.48;101425.44;6274251;22;19995;-78
2022/05/25 09:32:48;;;;;;;3.75;1.30;;;;;;;21.26;43.89;101412.00;6273596;22;20022;-79
2022/05/25 09:35:20;;;;;;;1.73;1.10;;;;;;;20.91;41.95;101419.50;6273643;22;20008;-79
2022/05/25 09:37:54;;;;;;;3.70;1.02;;;;;;;20.64;44.43;101418.03;6273496;22;20215;-79
2022/05/25 09:40:30;;;;;;;3.17;1.40;;;;;;;20.78;43.86;101419.19;6273530;22;19991;-79
2022/05/25 09:42:57;;;;;;;4.05;1.10;;;;;;;21.15;41.96;101418.63;6274351;22;20079;-76
2022/05/25 09:45:34;;;;;;;4.43;1.38;;;;;;;21.53;41.45;101410.75;6248262;22;20008;-78
2022/05/25 09:48:30;;;;;;;4.43;1.13;;;;;;;21.97;42.41;101409.31;6274307;22;19999;-77
2022/05/25 09:51:22;;;;;;;3.25;0.80;;;;;;;22.04;43.55;101421.09;6270473;22;20018;-79
2022/05/25 09:53:52;;;;;;;3.85;1.30;;;;;;;21.60;41.68;101419.84;6180150;23;20069;-77
2022/05/25 09:56:28;;;;;;;2.08;1.00;;;;;;;21.38;40.65;101424.13;6183021;23;20049;-77
2022/05/25 09:58:58;;;;;;;2.03;0.98;;;;;;;21.39;41.77;101423.09;6182923;23;20056;-78
2022/05/25 10:01:43;;;;;;;3.15;0.80;;;;;;;21.66;43.89;101428.25;6182258;23;20088;-78
2022/05/25 10:04:14;;;;;;;4.78;1.35;;;;;;;21.44;41.59;101434.22;6181417;23;20033;-78
2022/05/25 10:07:24;;;;;;;2.42;0.90;;;;;;;21.40;43.76;101432.91;6182684;23;20001;-79
2022/05/25 10:09:51;;;;;;;3.63;1.33;;;;;;;21.41;44.61;101434.56;6161482;23;20020;-78
2022/05/25 10:12:25;;;;;;;2.95;0.90;;;;;;;21.30;43.47;101434.09;6182433;23;20046;-77
2022/05/25 10:14:57;;;;;;;3.35;1.20;;;;;;;21.19;41.27;101427.22;6183221;23;20133;-77
2022/05/25 10:17:35;;;;;;;4.00;1.02;;;;;;;21.51;41.43;101426.28;6157790;23;19998;-78
2022/05/25 10:20:03;;;;;;;2.57;0.60;;;;;;;21.50;40.86;101437.28;6183885;23;19994;-78
2022/05/25 10:22:41;;;;;;;2.90;0.60;;;;;;;21.11;39.79;101436.19;6182517;23;20292;-77
2022/05/25 10:25:12;;;;;;;3.53;1.10;;;;;;;20.81;41.55;101435.06;6224265;23;19989;-76
2022/05/25 10:27:43;;;;;;;4.78;1.00;;;;;;;20.90;41.12;101428.66;6244211;23;19997;-79
2022/05/25 10:36:47;;;;;;;3.08;0.82;;;;;;;20.91;42.73;101422.22;6244444;23;20031;-77
2022/05/25 10:39:28;;;;;;;2.40;0.70;;;;;;;20.78;41.90;101413.81;6219667;23;20012;-77
2022/05/25 10:42:17;;;;;;;2.03;0.88;;;;;;;20.62;41.52;101417.34;6235688;23;20066;-76
2022/05/25 10:45:16;;;;;;;3.97;0.80;;;;;;;20.59;43.39;101425.78;6245537;23;20048;-78
2022/05/25 10:47:57;;;;;;;;;;;;;;;20.73;43.83;101417.00;6245713;23;19993;-76
2022/05/25 10:50:35;;;;;;;2.15;0.95;;;;;;;20.35;41.28;101416.69;6245156;23;19896;-78
2022/05/25 10:53:16;;;;;;;3.08;0.63;;;;;;;20.78;42.02;101424.59;6244744;23;20017;-80
2022/05/25 10:55:51;;;;;;;3.65;0.77;;;;;;;20.73;41.22;101417.00;6244268;23;19985;-79
2022/05/25 10:58:34;;;;;;;5.75;1.20;;;;;;;20.34;41.64;101423.91;6245400;23;19993;-79
2022/05/25 11:01:24;;;;;;;2.70;0.90;;;;;;;20.32;42.17;101417.00;6243681;23;19993;-79
2022/05/25 11:03:52;;;;;;;5.28;1.20;;;;;;;20.34;41.86;101413.13;6245234;23;19988;-78
2022/05/25 11:06:26;;;;;;;2.65;0.98;;;;;;;20.34;42.79;101414.97;6271624;22;20000;-79
2022/05/25 11:09:13;;;;;;;4.57;0.98;;;;;;;20.30;42.35;101429.78;6274693;22;19989;-80
2022/05/25 11:12:02;;;;;;;2.88;0.98;;;;;;;20.58;43.10;101426.78;6275653;22;19992;-79
2022/05/25 11:15:13;;;;;;;2.15;0.80;;;;;;;20.85;43.44;101412.97;6275109;22;19984;-79
2022/05/25 11:17:47;;;;;;;4.97;0.93;;;;;;;20.67;40.87;101418.53;6203537;22;20007;-78
2022/05/25 11:20:25;;;;;;;2.75;1.00;;;;;;;20.73;42.15;101411.59;6275481;22;20003;-79
2022/05/25 11:23:16;;;;;;;4.60;0.88;;;;;;;20.88;42.27;101409.06;6275571;22;19996;-80
2022/05/25 11:26:12;;;;;;;3.30;0.95;;;;;;;21.25;42.72;101397.66;6275042;22;20069;-80
2022/05/25 11:28:49;;;;;;;2.33;0.77;;;;;;;21.65;40.65;101404.94;6275245;22;20015;-79
2022/05/25 11:31:17;;;;;;;3.75;1.00;;;;;;;21.92;40.05;101400.91;6248892;23;20004;-79
2022/05/25 11:34:18;;;;;;;3.90;0.90;;;;;;;22.11;39.33;101386.91;6273748;22;20008;-78
2022/05/25 11:36:52;;;;;;;2.78;0.90;;;;;;;21.94;37.23;101393.44;6274047;22;20008;-80
2022/05/25 11:39:31;;;;;;;1.58;0.80;;;;;;;21.81;36.77;101394.03;6274952;22;20056;-76
2022/05/25 11:42:22;;;;;;;5.20;1.00;;;;;;;21.89;37.57;101395.84;6275037;22;20033;-78
2022/05/25 11:45:08;;;;;;;3.20;1.13;;;;;;;22.07;39.53;101392.88;6243710;22;20010;-80
2022/05/25 11:47:52;;;;;;;1.55;0.80;;;;;;;22.17;38.53;101388.88;6274644;22;20000;-79
2022/05/25 11:50:39;;;;;;;6.05;1.20;;;;;;;21.85;38.16;101389.97;6274082;22;20004;-79
2022/05/25 11:53:23;;;;;;;4.00;1.10;;;;;;;21.71;38.20;101388.00;6274481;22;20027;-79
2022/05/25 11:56:10;;;;;;;3.72;1.20;;;;;;;21.79;39.60;101393.38;6274348;22;20011;-79
2022/05/25 11:58:48;;;;;;;3.30;1.02;;;;;;;21.61;39.62;101396.34;6273451;22;20127;-78
2022/05/25 12:01:37;;;;;;;1.38;0.77;;;;;;;21.61;40.39;101394.47;6274751;22;20040;-78
2022/05/25 12:04:34;;;;;;;2.78;1.20;;;;;;;21.52;39.86;101398.25;6274650;22;20015;-78
2022/05/25 12:07:15;;;;;;;3.15;0.90;;;;;;;21.58;39.70;101394.84;6274429;22;19999;-79
2022/05/25 12:09:51;;;;;;;4.10;1.17;;;;;;;21.85;40.34;101389.97;6274514;22;20042;-78